Time;durP1;ratioP1;P1;durP2;ratioP2;P2;SDS_P1;SDS_P2;PMS_P1;PMS_P2;Temp;Humidity;BMP_temperature;BMP_pressure;BME280_temperature;BME280_humidity;BME280_pressure;Samples;Min_cycle;Max_cycle;Signal;HPM_P1;HPM_P2
2023/11/07 00:01:01;;;;;;;16.05;4.03;;;;;;;;;;5042107;28;20049;-59
2023/11/07 00:03:27;;;;;;;17.98;3.58;;;;;;;;;;5041901;28;20391;-59
2023/11/07 00:05:53;;;;;;;16.67;3.53;;;;;;;;;;5041114;28;20408;-59
2023/11/07 00:08:20;;;;;;;10.25;3.25;;;;;;;;;;5044495;28;20044;-60
2023/11/07 00:10:46;;;;;;;14.02;3.63;;;;;;;;;;5042715;28;20079;-60
2023/11/07 00:13:12;;;;;;;8.90;2.80;;;;;;;;;;5042817;28;20081;-59
2023/11/07 00:15:39;;;;;;;11.98;2.70;;;;;;;;;;5043230;28;20489;-59
2023/11/07 00:18:05;;;;;;;10.13;2.60;;;;;;;;;;5042487;28;20067;-60
2023/11/07 00:20:31;;;;;;;10.55;3.20;;;;;;;;;;5044123;28;20044;-59
2023/11/07 00:22:58;;;;;;;6.78;2.25;;;;;;;;;;5045007;28;20052;-59
2023/11/07 00:25:25;;;;;;;11.98;2.10;;;;;;;;;;5034735;28;20126;-59
2023/11/07 00:27:51;;;;;;;15.55;2.35;;;;;;;;;;5042255;28;20033;-59
2023/11/07 00:30:17;;;;;;;12.15;2.65;;;;;;;;;;5042610;28;20095;-59
2023/11/07 00:32:44;;;;;;;12.88;2.35;;;;;;;;;;5042339;28;20110;-60
2023/11/07 00:35:10;;;;;;;12.90;2.30;;;;;;;;;;5041921;28;20073;-59
2023/11/07 00:37:36;;;;;;;10.50;2.38;;;;;;;;;;5043228;28;20041;-59
2023/11/07 00:40:02;;;;;;;8.40;1.95;;;;;;;;;;5042235;28;20049;-59
2023/11/07 00:42:28;;;;;;;9.40;2.17;;;;;;;;;;5041071;28;20062;-59
2023/11/07 00:44:55;;;;;;;8.02;1.95;;;;;;;;;;5041249;28;20041;-59
2023/11/07 00:47:21;;;;;;;13.68;2.00;;;;;;;;;;5042602;28;20085;-60
2023/11/07 00:49:48;;;;;;;13.38;2.13;;;;;;;;;;5042109;28;20126;-59
2023/11/07 00:52:14;;;;;;;9.27;2.05;;;;;;;;;;5040390;28;20044;-60
2023/11/07 00:54:40;;;;;;;14.70;3.55;;;;;;;;;;5042000;28;20041;-59
2023/11/07 00:57:08;;;;;;;8.55;1.42;;;;;;;;;;5040285;28;20052;-59
2023/11/07 00:59:35;;;;;;;6.80;1.70;;;;;;;;;;5044605;28;20041;-59
2023/11/07 01:02:03;;;;;;;10.55;2.03;;;;;;;;;;5027419;28;20446;-59
2023/11/07 01:04:29;;;;;;;10.93;2.22;;;;;;;;;;5046624;28;20056;-59
2023/11/07 01:06:56;;;;;;;8.50;1.83;;;;;;;;;;5042145;28;20467;-59
2023/11/07 01:09:22;;;;;;;9.95;2.17;;;;;;;;;;5042704;28;20057;-59
2023/11/07 01:11:48;;;;;;;15.38;3.17;;;;;;;;;;5041778;28;20048;-59
2023/11/07 01:14:14;;;;;;;7.78;2.30;;;;;;;;;;5042922;28;20076;-59
2023/11/07 01:16:41;;;;;;;9.38;2.47;;;;;;;;;;5041671;28;20048;-59
2023/11/07 01:19:07;;;;;;;6.00;2.05;;;;;;;;;;5041008;28;20052;-60
2023/11/07 01:21:33;;;;;;;8.20;2.42;;;;;;;;;;5022297;28;20049;-59
2023/11/07 01:23:59;;;;;;;6.68;2.33;;;;;;;;;;5043148;28;20056;-59
2023/11/07 01:26:25;;;;;;;8.85;2.30;;;;;;;;;;5041179;28;20048;-59
2023/11/07 01:28:52;;;;;;;7.10;2.88;;;;;;;;;;5061943;28;20542;-60
2023/11/07 01:31:19;;;;;;;9.85;3.72;;;;;;;;;;5045405;28;20037;-60
2023/11/07 01:33:45;;;;;;;11.85;4.72;;;;;;;;;;5052918;28;20423;-59
2023/11/07 01:36:12;;;;;;;18.60;6.63;;;;;;;;;;5056819;28;20428;-59
2023/11/07 01:38:38;;;;;;;15.63;8.23;;;;;;;;;;5054026;28;20045;-59
2023/11/07 01:41:04;;;;;;;20.98;10.45;;;;;;;;;;5054759;28;20041;-60
2023/11/07 01:43:31;;;;;;;17.38;11.30;;;;;;;;;;5042834;28;20154;-59
2023/11/07 01:46:02;;;;;;;26.00;13.50;;;;;;;;;;5054307;28;20079;-59
2023/11/07 01:48:29;;;;;;;31.73;17.27;;;;;;;;;;5065233;28;20045;-59
2023/11/07 01:50:55;;;;;;;29.73;17.05;;;;;;;;;;5041838;28;20099;-59
2023/11/07 01:53:22;;;;;;;35.92;19.77;;;;;;;;;;5055395;28;20045;-59
2023/11/07 01:55:48;;;;;;;32.72;20.48;;;;;;;;;;5053566;28;20681;-60
2023/11/07 01:58:15;;;;;;;36.88;20.08;;;;;;;;;;5047016;28;20442;-59
2023/11/07 02:00:43;;;;;;;41.15;23.27;;;;;;;;;;5049706;28;20055;-59
2023/11/07 02:03:10;;;;;;;39.63;23.63;;;;;;;;;;5051946;28;20124;-60
2023/11/07 02:05:36;;;;;;;42.03;21.20;;;;;;;;;;5054383;28;20048;-59
2023/11/07 02:08:04;;;;;;;37.20;22.75;;;;;;;;;;5059008;28;20036;-59
2023/11/07 02:10:30;;;;;;;45.05;21.83;;;;;;;;;;5051485;28;20111;-59
2023/11/07 02:12:56;;;;;;;35.08;20.17;;;;;;;;;;5053865;28;20045;-59
2023/11/07 02:15:26;;;;;;;44.05;21.20;;;;;;;;;;5054550;28;20118;-59
2023/11/07 02:17:52;;;;;;;43.20;21.50;;;;;;;;;;5045649;28;20056;-59
2023/11/07 02:20:18;;;;;;;40.15;19.92;;;;;;;;;;5066113;28;20037;-59
2023/11/07 02:22:48;;;;;;;42.25;19.98;;;;;;;;;;5068974;28;20063;-59
2023/11/07 02:25:20;;;;;;;41.15;18.98;;;;;;;;;;5045484;28;20503;-59
2023/11/07 02:27:47;;;;;;;38.70;18.17;;;;;;;;;;5039976;28;20088;-59
2023/11/07 02:30:13;;;;;;;38.88;18.00;;;;;;;;;;5054577;28;20052;-59
2023/11/07 02:32:43;;;;;;;35.03;18.58;;;;;;;;;;5034624;28;20059;-59
2023/11/07 02:35:13;;;;;;;36.20;17.38;;;;;;;;;;5033019;28;20527;-59
2023/11/07 02:37:40;;;;;;;42.88;19.83;;;;;;;;;;5047181;28;20072;-59
2023/11/07 02:40:10;;;;;;;38.22;17.50;;;;;;;;;;5043999;28;20045;-59
2023/11/07 02:42:36;;;;;;;37.78;17.10;;;;;;;;;;5044572;28;20060;-59
2023/11/07 02:45:03;;;;;;;39.05;17.73;;;;;;;;;;5044030;28;20056;-59
2023/11/07 02:47:29;;;;;;;41.88;17.35;;;;;;;;;;5044118;28;20385;-59
2023/11/07 02:49:55;;;;;;;34.92;17.08;;;;;;;;;;5027222;28;20469;-59
2023/11/07 02:52:22;;;;;;;36.50;16.10;;;;;;;;;;5043574;28;20048;-59
2023/11/07 02:54:48;;;;;;;37.05;16.33;;;;;;;;;;5030738;28;20153;-59
2023/11/07 02:57:15;;;;;;;39.00;15.75;;;;;;;;;;5045481;28;20072;-59
2023/11/07 02:59:45;;;;;;;42.35;17.10;;;;;;;;;;5043771;28;20087;-60
2023/11/07 03:02:11;;;;;;;34.92;16.27;;;;;;;;;;5044967;28;20041;-59
2023/11/07 03:04:38;;;;;;;42.70;16.50;;;;;;;;;;5043368;28;20120;-59
2023/11/07 03:07:04;;;;;;;34.67;15.35;;;;;;;;;;5045712;28;20492;-60
2023/11/07 03:09:30;;;;;;;37.50;15.27;;;;;;;;;;5044421;28;20117;-59
2023/11/07 03:11:57;;;;;;;37.55;15.95;;;;;;;;;;5044433;28;20044;-60
2023/11/07 03:14:23;;;;;;;38.88;15.85;;;;;;;;;;5045032;28;20041;-59
2023/11/07 03:16:49;;;;;;;29.40;14.93;;;;;;;;;;5043073;28;20041;-60
2023/11/07 03:19:15;;;;;;;38.88;15.57;;;;;;;;;;5046679;28;20075;-59
2023/11/07 03:21:41;;;;;;;35.22;15.35;;;;;;;;;;5044045;28;20037;-59
2023/11/07 03:24:08;;;;;;;32.25;15.05;;;;;;;;;;5042726;28;20445;-59
2023/11/07 03:26:35;;;;;;;35.58;14.57;;;;;;;;;;5042972;28;20135;-59
2023/11/07 03:29:01;;;;;;;34.97;15.77;;;;;;;;;;5044837;28;20060;-59
2023/11/07 03:31:27;;;;;;;33.50;14.25;;;;;;;;;;5043722;28;20056;-59
2023/11/07 03:33:53;;;;;;;31.17;14.32;;;;;;;;;;5044543;28;20064;-59
2023/11/07 03:36:19;;;;;;;35.22;13.48;;;;;;;;;;5044704;28;20260;-59
2023/11/07 03:38:46;;;;;;;35.20;14.05;;;;;;;;;;5024517;28;20528;-59
2023/11/07 03:41:12;;;;;;;33.33;15.13;;;;;;;;;;5042696;28;20045;-60
2023/11/07 03:43:39;;;;;;;33.25;15.20;;;;;;;;;;5042807;28;20126;-59
2023/11/07 03:46:06;;;;;;;36.65;15.10;;;;;;;;;;5043129;28;20037;-59
2023/11/07 03:48:32;;;;;;;36.63;16.60;;;;;;;;;;5043322;28;20055;-59
2023/11/07 03:50:59;;;;;;;39.90;17.55;;;;;;;;;;5045883;28;20041;-59
2023/11/07 03:53:25;;;;;;;40.33;16.77;;;;;;;;;;5042478;28;20076;-59
2023/11/07 03:55:52;;;;;;;41.85;16.50;;;;;;;;;;5042632;28;20212;-59
2023/11/07 03:58:18;;;;;;;34.63;16.05;;;;;;;;;;5043499;28;20048;-59
2023/11/07 04:00:45;;;;;;;32.35;15.38;;;;;;;;;;5040364;28;20112;-60
2023/11/07 04:03:11;;;;;;;35.17;16.35;;;;;;;;;;5044120;28;20056;-59
2023/11/07 04:05:37;;;;;;;35.28;16.48;;;;;;;;;;5042197;28;20045;-59
2023/11/07 04:08:04;;;;;;;36.08;16.58;;;;;;;;;;5044425;28;20044;-59
2023/11/07 04:10:30;;;;;;;26.60;15.07;;;;;;;;;;5042394;28;20056;-59
2023/11/07 04:12:56;;;;;;;32.45;16.00;;;;;;;;;;5042720;28;20099;-59
2023/11/07 04:15:23;;;;;;;34.80;15.38;;;;;;;;;;5042729;28;20417;-59
2023/11/07 04:17:52;;;;;;;33.53;14.38;;;;;;;;;;5043734;28;20044;-59
2023/11/07 04:20:19;;;;;;;34.92;14.25;;;;;;;;;;5044727;28;20044;-59
2023/11/07 04:22:47;;;;;;;35.70;15.82;;;;;;;;;;5024224;28;20461;-60
2023/11/07 04:25:13;;;;;;;38.38;16.58;;;;;;;;;;5042177;28;20427;-59
2023/11/07 04:27:39;;;;;;;33.15;14.23;;;;;;;;;;5023647;28;20063;-59
2023/11/07 04:30:06;;;;;;;35.40;16.38;;;;;;;;;;5042448;28;20208;-59
2023/11/07 04:32:36;;;;;;;26.85;14.25;;;;;;;;;;5040847;28;20044;-59
2023/11/07 04:35:05;;;;;;;32.85;14.85;;;;;;;;;;5044713;28;20047;-59
2023/11/07 04:37:31;;;;;;;28.90;14.32;;;;;;;;;;5024765;28;20386;-59
2023/11/07 04:39:57;;;;;;;27.58;12.55;;;;;;;;;;5043058;28;20393;-59
2023/11/07 04:42:23;;;;;;;36.65;13.95;;;;;;;;;;5043828;28;20115;-59
2023/11/07 04:44:50;;;;;;;33.50;14.35;;;;;;;;;;5042205;28;20127;-59
2023/11/07 04:47:17;;;;;;;31.52;14.05;;;;;;;;;;5043061;28;20044;-59
2023/11/07 04:49:45;;;;;;;41.67;14.95;;;;;;;;;;5041871;28;20136;-59
2023/11/07 04:52:11;;;;;;;32.60;14.77;;;;;;;;;;5044513;28;20115;-59
2023/11/07 04:54:38;;;;;;;38.35;14.40;;;;;;;;;;5048810;28;20033;-60
2023/11/07 04:57:07;;;;;;;33.03;14.55;;;;;;;;;;5048778;28;20045;-59
2023/11/07 04:59:34;;;;;;;33.42;14.02;;;;;;;;;;5047139;28;20143;-59
2023/11/07 05:02:03;;;;;;;35.28;14.90;;;;;;;;;;5042236;28;20108;-60
2023/11/07 05:04:29;;;;;;;33.38;13.57;;;;;;;;;;5040412;28;20129;-59
2023/11/07 05:06:56;;;;;;;33.42;13.63;;;;;;;;;;5049245;28;20072;-59
2023/11/07 05:09:22;;;;;;;41.15;15.30;;;;;;;;;;5061430;28;20055;-59
2023/11/07 05:11:48;;;;;;;35.30;13.40;;;;;;;;;;5070420;28;20125;-60
2023/11/07 05:14:14;;;;;;;31.38;12.80;;;;;;;;;;5057625;28;20091;-59
2023/11/07 05:16:43;;;;;;;31.23;12.13;;;;;;;;;;5068184;28;20036;-59
2023/11/07 05:19:11;;;;;;;33.17;13.65;;;;;;;;;;5061129;28;20045;-59
2023/11/07 05:21:37;;;;;;;36.40;14.43;;;;;;;;;;5057324;28;20488;-59
2023/11/07 05:24:04;;;;;;;32.88;16.55;;;;;;;;;;5057162;28;20036;-59
2023/11/07 05:26:31;;;;;;;34.75;14.25;;;;;;;;;;5041942;28;20045;-59
2023/11/07 05:28:57;;;;;;;32.63;15.52;;;;;;;;;;5066944;28;20046;-59
2023/11/07 05:31:23;;;;;;;32.65;15.20;;;;;;;;;;5066327;28;20150;-60
2023/11/07 05:33:50;;;;;;;38.50;14.32;;;;;;;;;;5073936;28;20036;-59
2023/11/07 05:36:16;;;;;;;32.58;13.57;;;;;;;;;;5060946;28;20378;-59
2023/11/07 05:38:45;;;;;;;37.22;14.48;;;;;;;;;;5066144;28;20037;-59
2023/11/07 05:41:12;;;;;;;29.27;13.68;;;;;;;;;;5064473;28;20412;-59
2023/11/07 05:43:39;;;;;;;40.28;16.15;;;;;;;;;;5073072;28;20464;-59
2023/11/07 05:46:05;;;;;;;38.10;12.57;;;;;;;;;;5073790;28;20404;-59
2023/11/07 05:48:32;;;;;;;31.25;12.48;;;;;;;;;;5052619;28;20048;-59
2023/11/07 05:51:01;;;;;;;31.70;13.50;;;;;;;;;;5059223;28;20036;-59
2023/11/07 05:53:27;;;;;;;35.22;11.85;;;;;;;;;;5065644;28;20136;-59
2023/11/07 05:55:54;;;;;;;38.63;13.68;;;;;;;;;;5051527;28;20089;-59
2023/11/07 05:58:20;;;;;;;38.55;12.98;;;;;;;;;;5046508;28;20044;-59
2023/11/07 06:00:47;;;;;;;29.13;12.50;;;;;;;;;;5048043;28;20131;-59
2023/11/07 06:03:13;;;;;;;29.85;12.25;;;;;;;;;;5043596;28;20115;-59
2023/11/07 06:05:41;;;;;;;32.80;11.60;;;;;;;;;;5050763;28;20547;-60
2023/11/07 06:08:08;;;;;;;31.92;11.07;;;;;;;;;;5053207;28;20052;-59
2023/11/07 06:10:34;;;;;;;26.27;11.32;;;;;;;;;;5053046;28;20424;-59
2023/11/07 06:13:03;;;;;;;28.70;10.98;;;;;;;;;;5052328;28;20064;-59
2023/11/07 06:15:29;;;;;;;37.72;11.63;;;;;;;;;;5060219;28;20056;-59
2023/11/07 06:17:55;;;;;;;23.35;9.02;;;;;;;;;;5059819;28;20579;-59
2023/11/07 06:20:21;;;;;;;26.40;10.50;;;;;;;;;;5056957;28;20055;-59
2023/11/07 06:22:48;;;;;;;27.88;9.05;;;;;;;;;;5062449;28;20052;-59
2023/11/07 06:25:15;;;;;;;24.25;8.82;;;;;;;;;;5053579;28;20059;-59
2023/11/07 06:27:41;;;;;;;26.60;8.98;;;;;;;;;;5037052;28;20045;-59
2023/11/07 06:30:09;;;;;;;27.15;7.85;;;;;;;;;;5058068;28;20053;-59
2023/11/07 06:32:37;;;;;;;27.38;10.88;;;;;;;;;;5059867;28;20124;-59
2023/11/07 06:35:05;;;;;;;23.90;8.70;;;;;;;;;;5067406;28;20052;-60
2023/11/07 06:37:33;;;;;;;25.58;9.10;;;;;;;;;;5059736;28;20130;-59
2023/11/07 06:40:17;;;;;;;22.42;7.63;;;;;;;;;;5066422;28;20048;-60
2023/11/07 06:42:47;;;;;;;22.10;7.43;;;;;;;;;;5070455;28;20060;-60
2023/11/07 06:45:13;;;;;;;22.60;8.32;;;;;;;;;;5060446;28;20044;-60
2023/11/07 06:47:40;;;;;;;18.27;9.73;;;;;;;;;;5059658;28;20056;-60
2023/11/07 06:50:08;;;;;;;25.45;8.50;;;;;;;;;;5054506;28;20055;-60
2023/11/07 06:52:36;;;;;;;24.30;9.98;;;;;;;;;;5064891;28;20410;-60
2023/11/07 06:55:02;;;;;;;27.65;9.73;;;;;;;;;;5056084;28;20559;-60
2023/11/07 06:57:28;;;;;;;23.50;9.02;;;;;;;;;;5071140;28;20103;-60
2023/11/07 06:59:55;;;;;;;24.65;8.75;;;;;;;;;;5054266;28;20441;-60
2023/11/07 07:02:21;;;;;;;29.55;10.02;;;;;;;;;;5054705;28;20049;-60
2023/11/07 07:04:47;;;;;;;24.42;9.60;;;;;;;;;;5072196;28;20097;-60
2023/11/07 07:07:13;;;;;;;20.52;9.50;;;;;;;;;;5049056;28;20131;-60
2023/11/07 07:09:39;;;;;;;23.58;10.82;;;;;;;;;;5040238;28;20051;-60
2023/11/07 07:12:06;;;;;;;25.60;10.23;;;;;;;;;;5072123;28;20044;-60
2023/11/07 07:14:32;;;;;;;24.75;10.82;;;;;;;;;;5057766;28;20137;-60
2023/11/07 07:17:01;;;;;;;22.55;10.70;;;;;;;;;;5064193;28;20077;-60
2023/11/07 07:19:27;;;;;;;21.52;11.10;;;;;;;;;;5071867;28;20052;-61
2023/11/07 07:21:53;;;;;;;21.65;10.95;;;;;;;;;;5055165;28;20041;-60
2023/11/07 07:24:27;;;;;;;26.30;11.15;;;;;;;;;;5049546;28;20501;-60
2023/11/07 07:26:58;;;;;;;21.10;10.50;;;;;;;;;;5056127;28;20470;-60
2023/11/07 07:29:27;;;;;;;16.88;9.63;;;;;;;;;;5066627;28;20379;-60
2023/11/07 07:31:56;;;;;;;23.08;9.18;;;;;;;;;;5056114;28;20051;-62
2023/11/07 07:34:22;;;;;;;14.98;7.57;;;;;;;;;;5046342;28;20124;-63
2023/11/07 07:36:50;;;;;;;20.95;8.23;;;;;;;;;;5050639;28;20488;-60
2023/11/07 07:39:28;;;;;;;15.50;7.30;;;;;;;;;;5051746;28;20124;-60
2023/11/07 07:41:55;;;;;;;14.30;7.10;;;;;;;;;;5050311;28;20041;-60
2023/11/07 07:44:24;;;;;;;11.73;6.70;;;;;;;;;;5050539;28;20548;-60
2023/11/07 07:46:51;;;;;;;14.65;6.82;;;;;;;;;;5031586;28;20052;-60
2023/11/07 07:49:18;;;;;;;13.27;6.70;;;;;;;;;;5050764;28;20409;-60
2023/11/07 07:51:46;;;;;;;17.20;4.97;;;;;;;;;;5048667;28;20195;-60
2023/11/07 07:54:12;;;;;;;14.52;5.22;;;;;;;;;;5051421;28;20093;-60
2023/11/07 07:56:38;;;;;;;11.68;5.00;;;;;;;;;;5051284;28;20040;-60
2023/11/07 07:59:05;;;;;;;14.00;5.78;;;;;;;;;;5050573;28;20045;-61
2023/11/07 08:01:33;;;;;;;11.90;5.18;;;;;;;;;;5049143;28;20420;-61
2023/11/07 08:03:59;;;;;;;17.25;4.28;;;;;;;;;;5050374;28;20040;-61
2023/11/07 08:06:25;;;;;;;14.45;4.80;;;;;;;;;;5050488;28;20055;-62
2023/11/07 08:08:52;;;;;;;11.95;5.03;;;;;;;;;;5050930;28;20124;-61
2023/11/07 08:11:18;;;;;;;10.45;3.50;;;;;;;;;;5049284;28;20059;-61
2023/11/07 08:13:44;;;;;;;14.68;3.63;;;;;;;;;;5050939;28;20060;-61
2023/11/07 08:16:12;;;;;;;13.35;3.58;;;;;;;;;;5054488;28;20401;-61
2023/11/07 08:18:38;;;;;;;9.98;2.40;;;;;;;;;;5070077;28;20040;-61
2023/11/07 08:21:05;;;;;;;10.95;2.65;;;;;;;;;;5050614;28;20052;-62
2023/11/07 08:23:31;;;;;;;8.43;2.15;;;;;;;;;;5054972;28;20089;-61
2023/11/07 08:25:57;;;;;;;8.45;2.70;;;;;;;;;;5070048;28;20043;-61
2023/11/07 08:28:23;;;;;;;6.32;2.13;;;;;;;;;;5070424;28;20125;-61
2023/11/07 08:30:50;;;;;;;12.70;2.20;;;;;;;;;;5061066;28;20515;-61
2023/11/07 08:33:16;;;;;;;6.72;2.00;;;;;;;;;;5039550;28;20041;-61
2023/11/07 08:35:44;;;;;;;6.22;2.05;;;;;;;;;;5042057;28;20040;-60
2023/11/07 08:38:11;;;;;;;7.00;2.50;;;;;;;;;;5040557;28;20032;-61
2023/11/07 08:40:38;;;;;;;12.30;2.97;;;;;;;;;;5053895;28;20051;-61
2023/11/07 08:43:04;;;;;;;7.47;2.30;;;;;;;;;;5051366;28;20053;-61
2023/11/07 08:45:32;;;;;;;10.40;3.28;;;;;;;;;;5030108;28;20036;-61
2023/11/07 08:47:58;;;;;;;9.13;3.45;;;;;;;;;;5062159;28;20369;-61
2023/11/07 08:50:25;;;;;;;9.70;3.33;;;;;;;;;;5070242;28;20048;-61
2023/11/07 08:52:51;;;;;;;7.80;3.65;;;;;;;;;;5070401;28;20585;-61
2023/11/07 08:55:18;;;;;;;7.75;3.15;;;;;;;;;;5069855;28;20044;-61
2023/11/07 08:57:44;;;;;;;10.77;3.50;;;;;;;;;;5065181;28;20123;-61
2023/11/07 09:00:12;;;;;;;8.77;3.55;;;;;;;;;;5048762;28;20434;-61
2023/11/07 09:02:38;;;;;;;11.13;4.60;;;;;;;;;;5052807;28;20041;-61
2023/11/07 09:05:05;;;;;;;8.98;4.03;;;;;;;;;;5070511;28;20101;-61
2023/11/07 09:07:32;;;;;;;10.70;3.65;;;;;;;;;;5069419;28;20083;-61
2023/11/07 09:09:58;;;;;;;12.50;3.67;;;;;;;;;;5070289;28;20036;-61
2023/11/07 09:12:25;;;;;;;8.90;3.20;;;;;;;;;;5070041;28;20488;-61
2023/11/07 09:14:51;;;;;;;8.20;3.45;;;;;;;;;;5054830;28;20033;-61
2023/11/07 09:17:17;;;;;;;8.30;3.78;;;;;;;;;;5059673;28;20048;-61
2023/11/07 09:19:43;;;;;;;14.77;3.70;;;;;;;;;;5054912;28;20087;-61
2023/11/07 09:22:10;;;;;;;11.50;3.72;;;;;;;;;;5069299;28;20056;-61
2023/11/07 09:24:37;;;;;;;7.22;3.42;;;;;;;;;;5063114;28;20077;-62
2023/11/07 09:27:07;;;;;;;11.57;5.05;;;;;;;;;;5038778;28;20063;-61
2023/11/07 09:29:39;;;;;;;9.05;3.08;;;;;;;;;;5051145;28;20053;-61
2023/11/07 09:32:05;;;;;;;16.17;6.95;;;;;;;;;;5048370;28;20049;-61
2023/11/07 09:34:32;;;;;;;9.73;4.18;;;;;;;;;;5050640;28;20131;-61
2023/11/07 09:37:01;;;;;;;6.93;3.40;;;;;;;;;;5044736;28;20052;-61
2023/11/07 09:39:27;;;;;;;11.20;4.78;;;;;;;;;;5049262;28;20037;-61
2023/11/07 09:41:53;;;;;;;11.88;4.28;;;;;;;;;;5044346;28;20487;-62
2023/11/07 09:44:20;;;;;;;6.90;4.00;;;;;;;;;;5042564;28;20056;-61
2023/11/07 09:46:49;;;;;;;10.98;4.05;;;;;;;;;;5042403;28;20512;-61
2023/11/07 09:49:15;;;;;;;7.82;3.67;;;;;;;;;;5042402;28;20037;-61
2023/11/07 09:51:41;;;;;;;7.47;3.90;;;;;;;;;;5045772;28;20041;-61
2023/11/07 09:54:08;;;;;;;13.63;3.75;;;;;;;;;;5044245;28;20041;-61
2023/11/07 09:56:40;;;;;;;10.13;4.63;;;;;;;;;;5044219;28;20041;-61
2023/11/07 09:59:15;;;;;;;9.02;4.70;;;;;;;;;;5045245;28;20045;-61
2023/11/07 10:01:42;;;;;;;7.88;4.57;;;;;;;;;;5042928;28;21275;-61
2023/11/07 10:04:09;;;;;;;9.95;3.90;;;;;;;;;;5042714;28;20044;-62
2023/11/07 10:06:35;;;;;;;11.43;4.07;;;;;;;;;;5045795;28;20439;-61
2023/11/07 10:09:01;;;;;;;15.85;4.47;;;;;;;;;;5045511;28;20049;-61
2023/11/07 10:11:28;;;;;;;14.32;4.32;;;;;;;;;;5047511;28;20185;-61
2023/11/07 10:14:00;;;;;;;9.43;3.35;;;;;;;;;;5048328;28;20052;-61
2023/11/07 10:16:36;;;;;;;10.70;4.38;;;;;;;;;;5046483;28;20103;-61
2023/11/07 10:19:04;;;;;;;8.73;3.70;;;;;;;;;;5046813;28;20079;-61
2023/11/07 10:21:33;;;;;;;9.95;3.17;;;;;;;;;;5048438;28;20071;-62
2023/11/07 10:24:00;;;;;;;9.43;3.33;;;;;;;;;;5046792;28;20490;-61
2023/11/07 10:26:26;;;;;;;8.60;3.40;;;;;;;;;;5045444;28;20052;-61
2023/11/07 10:29:13;;;;;;;8.20;3.35;;;;;;;;;;5047251;28;20139;-61
2023/11/07 10:31:42;;;;;;;7.40;2.95;;;;;;;;;;5044578;28;20489;-61
2023/11/07 10:34:15;;;;;;;6.68;3.00;;;;;;;;;;5046617;28;20060;-66
2023/11/07 10:36:42;;;;;;;7.00;3.08;;;;;;;;;;5052737;28;20120;-60
2023/11/07 10:39:21;;;;;;;7.35;2.78;;;;;;;;;;5049897;28;20492;-70
2023/11/07 10:41:47;;;;;;;8.77;2.85;;;;;;;;;;5029926;28;20065;-61
2023/11/07 10:44:29;;;;;;;7.53;2.40;;;;;;;;;;5042714;28;20036;-61
2023/11/07 10:47:00;;;;;;;6.28;2.47;;;;;;;;;;5047483;28;20093;-61
2023/11/07 10:49:27;;;;;;;8.50;3.05;;;;;;;;;;5051593;28;20057;-61
2023/11/07 10:51:53;;;;;;;5.80;2.03;;;;;;;;;;5052366;28;20055;-61
2023/11/07 10:54:20;;;;;;;6.75;2.40;;;;;;;;;;5049816;28;20045;-61
2023/11/07 10:56:47;;;;;;;6.78;2.47;;;;;;;;;;5031647;28;20436;-60
2023/11/07 10:59:18;;;;;;;9.02;2.53;;;;;;;;;;5051892;28;20052;-60
2023/11/07 11:01:50;;;;;;;10.68;2.30;;;;;;;;;;5050485;28;20089;-60
2023/11/07 11:04:17;;;;;;;5.78;2.40;;;;;;;;;;5052174;28;20041;-61
2023/11/07 11:06:52;;;;;;;6.05;2.28;;;;;;;;;;5051984;28;20041;-60
2023/11/07 11:09:19;;;;;;;7.00;2.30;;;;;;;;;;5048295;28;20085;-60
2023/11/07 11:11:48;;;;;;;14.98;4.25;;;;;;;;;;5052204;28;20041;-60
2023/11/07 11:14:14;;;;;;;5.85;2.03;;;;;;;;;;5050107;28;20098;-60
2023/11/07 11:16:43;;;;;;;7.18;2.20;;;;;;;;;;5070631;28;20041;-60
2023/11/07 11:19:28;;;;;;;11.70;2.35;;;;;;;;;;5071616;28;20097;-60
2023/11/07 11:22:06;;;;;;;8.52;1.83;;;;;;;;;;5071286;28;20365;-60
2023/11/07 11:24:39;;;;;;;6.30;2.42;;;;;;;;;;5065242;28;20497;-60
2023/11/07 11:27:13;;;;;;;6.32;2.30;;;;;;;;;;5044700;28;20047;-60
2023/11/07 11:29:47;;;;;;;6.82;1.75;;;;;;;;;;5070988;28;20052;-60
2023/11/07 11:32:43;;;;;;;12.75;4.32;;;;;;;;;;5063747;28;20454;-60
2023/11/07 11:35:23;;;;;;;7.40;1.98;;;;;;;;;;5066516;28;20135;-61
2023/11/07 11:38:11;;;;;;;6.10;2.15;;;;;;;;;;5058094;28;20075;-61
2023/11/07 11:40:49;;;;;;;10.15;2.25;;;;;;;;;;5059335;28;20048;-61
2023/11/07 11:43:16;;;;;;;7.72;2.20;;;;;;;;;;5053044;28;20052;-61
2023/11/07 11:45:44;;;;;;;9.55;2.13;;;;;;;;;;5051411;28;20565;-61
2023/11/07 11:48:10;;;;;;;11.63;3.65;;;;;;;;;;5050513;28;20128;-61
2023/11/07 11:50:37;;;;;;;5.68;1.50;;;;;;;;;;5050586;28;20041;-61
2023/11/07 11:53:06;;;;;;;8.07;2.10;;;;;;;;;;5051375;28;20089;-62
2023/11/07 11:55:52;;;;;;;8.80;1.75;;;;;;;;;;5051350;28;20159;-61
2023/11/07 11:58:23;;;;;;;7.80;1.92;;;;;;;;;;5024516;28;20144;-61
2023/11/07 12:00:50;;;;;;;6.10;1.63;;;;;;;;;;5044497;28;20045;-61
2023/11/07 12:03:18;;;;;;;6.93;1.40;;;;;;;;;;5045081;28;20076;-61
2023/11/07 12:06:01;;;;;;;8.00;1.90;;;;;;;;;;5045459;28;20130;-62
2023/11/07 12:08:34;;;;;;;9.07;2.28;;;;;;;;;;5026303;28;20464;-61
2023/11/07 12:11:02;;;;;;;8.35;3.88;;;;;;;;;;5024983;28;20457;-61
2023/11/07 12:13:30;;;;;;;5.50;1.83;;;;;;;;;;5047340;28;20045;-62
2023/11/07 12:15:57;;;;;;;6.40;1.92;;;;;;;;;;5050022;28;20558;-61
2023/11/07 12:18:23;;;;;;;5.78;1.83;;;;;;;;;;5046520;28;20437;-61
2023/11/07 12:20:50;;;;;;;10.00;2.67;;;;;;;;;;5044107;28;20146;-61
2023/11/07 12:23:16;;;;;;;8.75;2.50;;;;;;;;;;5045131;28;20133;-61
2023/11/07 12:25:52;;;;;;;9.98;4.03;;;;;;;;;;5041231;28;20354;-61
2023/11/07 12:28:18;;;;;;;8.10;2.95;;;;;;;;;;5045027;28;20438;-62
2023/11/07 12:30:53;;;;;;;9.63;3.45;;;;;;;;;;5044780;28;20033;-62
2023/11/07 12:33:19;;;;;;;9.30;3.35;;;;;;;;;;5024385;28;20086;-64
2023/11/07 12:35:48;;;;;;;10.68;3.40;;;;;;;;;;5026486;28;20078;-64
2023/11/07 12:38:18;;;;;;;9.30;3.50;;;;;;;;;;5026526;28;20407;-64
2023/11/07 12:40:44;;;;;;;9.50;3.25;;;;;;;;;;5007522;28;20045;-63
2023/11/07 12:43:16;;;;;;;11.18;2.90;;;;;;;;;;5027735;28;20045;-64
2023/11/07 12:45:47;;;;;;;11.88;2.95;;;;;;;;;;5045567;28;20068;-64
2023/11/07 12:48:24;;;;;;;9.35;2.10;;;;;;;;;;5027644;28;20088;-64
2023/11/07 12:50:50;;;;;;;11.32;2.78;;;;;;;;;;5025457;28;20045;-64
2023/11/07 12:53:20;;;;;;;8.60;2.95;;;;;;;;;;5042934;28;20570;-64
2023/11/07 12:55:52;;;;;;;6.95;1.88;;;;;;;;;;5042555;28;20104;-64
2023/11/07 12:58:28;;;;;;;10.15;2.17;;;;;;;;;;5044975;28;20045;-61
2023/11/07 13:00:56;;;;;;;6.07;1.63;;;;;;;;;;5041813;28;20037;-61
2023/11/07 13:03:23;;;;;;;5.75;1.67;;;;;;;;;;5044441;28;20048;-61
2023/11/07 13:05:58;;;;;;;10.23;1.70;;;;;;;;;;5042333;28;20146;-61
2023/11/07 13:08:27;;;;;;;5.78;1.30;;;;;;;;;;5042648;28;20124;-60
2023/11/07 13:10:54;;;;;;;7.13;1.63;;;;;;;;;;5044836;28;20045;-60
2023/11/07 13:13:20;;;;;;;7.57;1.65;;;;;;;;;;5043722;28;20465;-61
2023/11/07 13:15:46;;;;;;;10.93;1.70;;;;;;;;;;5041182;28;20056;-61
2023/11/07 13:18:15;;;;;;;10.65;3.25;;;;;;;;;;5027337;28;20435;-61
2023/11/07 13:20:41;;;;;;;11.63;1.80;;;;;;;;;;5025538;28;20057;-61
2023/11/07 13:23:08;;;;;;;8.77;1.83;;;;;;;;;;5043408;28;20041;-61
2023/11/07 13:25:34;;;;;;;6.70;2.10;;;;;;;;;;5043238;28;20131;-60
2023/11/07 13:28:00;;;;;;;8.98;1.70;;;;;;;;;;5047174;28;20479;-60
2023/11/07 13:30:26;;;;;;;8.80;2.42;;;;;;;;;;5049412;28;20500;-60
2023/11/07 13:32:52;;;;;;;12.18;2.33;;;;;;;;;;5049265;28;20114;-70
2023/11/07 13:35:19;;;;;;;9.82;2.25;;;;;;;;;;5030113;28;20045;-60
2023/11/07 13:37:45;;;;;;;10.40;2.13;;;;;;;;;;5040670;28;20094;-60
2023/11/07 13:40:12;;;;;;;9.13;2.30;;;;;;;;;;5047371;28;20559;-60
2023/11/07 13:42:38;;;;;;;10.68;2.60;;;;;;;;;;5049924;28;20049;-60
2023/11/07 13:45:09;;;;;;;10.88;2.72;;;;;;;;;;5045525;28;20053;-60
2023/11/07 13:47:35;;;;;;;16.63;4.72;;;;;;;;;;5054206;28;20035;-60
2023/11/07 13:50:04;;;;;;;16.15;3.00;;;;;;;;;;5044307;28;20048;-60
2023/11/07 13:52:30;;;;;;;9.68;2.55;;;;;;;;;;5052346;28;20057;-60
2023/11/07 13:54:57;;;;;;;12.05;2.30;;;;;;;;;;5053255;28;20408;-60
2023/11/07 13:57:23;;;;;;;16.20;2.90;;;;;;;;;;5050516;28;20102;-60
2023/11/07 13:59:50;;;;;;;8.82;2.22;;;;;;;;;;5052846;28;20067;-60
2023/11/07 14:02:16;;;;;;;15.63;2.85;;;;;;;;;;5053006;28;20076;-60
2023/11/07 14:04:42;;;;;;;9.32;2.30;;;;;;;;;;5051822;28;20112;-60
2023/11/07 14:07:08;;;;;;;15.60;2.10;;;;;;;;;;5032443;28;20444;-60
2023/11/07 14:09:34;;;;;;;7.00;2.28;;;;;;;;;;5051320;28;20492;-60
2023/11/07 14:12:02;;;;;;;10.40;2.30;;;;;;;;;;5051974;28;20114;-60
2023/11/07 14:14:28;;;;;;;12.23;2.53;;;;;;;;;;5050888;28;20045;-60
2023/11/07 14:16:54;;;;;;;13.18;2.88;;;;;;;;;;5072841;28;20036;-60
2023/11/07 14:19:20;;;;;;;11.48;2.20;;;;;;;;;;5066426;28;20203;-59
2023/11/07 14:21:49;;;;;;;11.60;1.98;;;;;;;;;;5064277;28;20373;-60
2023/11/07 14:24:15;;;;;;;15.38;3.13;;;;;;;;;;5054607;28;20468;-60
2023/11/07 14:26:41;;;;;;;15.65;2.78;;;;;;;;;;5067146;28;20308;-60
2023/11/07 14:29:08;;;;;;;10.90;2.20;;;;;;;;;;5065959;28;20401;-60
2023/11/07 14:31:35;;;;;;;7.22;1.80;;;;;;;;;;5050483;28;20399;-59